Time;durP1;ratioP1;P1;durP2;ratioP2;P2;SDS_P1;SDS_P2;PMS_P1;PMS_P2;Temp;Humidity;BMP_temperature;BMP_pressure;BME280_temperature;BME280_humidity;BME280_pressure;Samples;Min_cycle;Max_cycle;Signal;HPM_P1;HPM_P2
2021/03/11 00:00:49;;;;;;;34.53;16.05;;;3.40;99.90;;;;;;5074311;28;20024;-71
2021/03/11 00:03:17;;;;;;;34.53;15.68;;;3.40;99.90;;;;;;5074103;28;20028;-71
2021/03/11 00:05:43;;;;;;;35.30;16.40;;;3.30;99.90;;;;;;5092185;28;20027;-70
2021/03/11 00:08:09;;;;;;;31.10;15.32;;;3.30;99.90;;;;;;5074117;28;20027;-71
2021/03/11 00:10:36;;;;;;;36.20;15.93;;;3.40;99.90;;;;;;5074174;28;20422;-71
2021/03/11 00:13:02;;;;;;;31.67;15.23;;;3.40;99.90;;;;;;5091923;28;20103;-70
2021/03/11 00:15:28;;;;;;;30.83;15.48;;;3.50;99.90;;;;;;5092168;28;20028;-70
2021/03/11 00:17:54;;;;;;;32.42;15.50;;;3.40;99.90;;;;;;5074121;28;20074;-71
2021/03/11 00:20:25;;;;;;;32.10;16.02;;;3.40;99.90;;;;;;5092126;28;20024;-70
2021/03/11 00:22:51;;;;;;;32.75;15.27;;;3.40;99.90;;;;;;5091641;28;20034;-71
2021/03/11 00:25:19;;;;;;;30.48;13.73;;;3.50;99.90;;;;;;5091947;28;20028;-71
2021/03/11 00:27:45;;;;;;;31.67;15.85;;;3.50;99.90;;;;;;5073530;28;20019;-71
2021/03/11 00:30:12;;;;;;;30.27;14.63;;;3.60;99.90;;;;;;5073643;28;20074;-70
2021/03/11 00:32:38;;;;;;;27.58;13.25;;;3.60;99.90;;;;;;5091493;28;20036;-70
2021/03/11 00:35:05;;;;;;;29.10;14.75;;;3.60;99.90;;;;;;5092090;28;20085;-70
2021/03/11 00:37:31;;;;;;;27.85;14.80;;;3.60;99.90;;;;;;5091694;28;20060;-70
2021/03/11 00:39:56;;;;;;;30.02;14.70;;;3.70;99.90;;;;;;5073512;28;20066;-70
2021/03/11 00:42:22;;;;;;;29.42;14.82;;;3.80;99.90;;;;;;5091474;28;20394;-71
2021/03/11 00:44:47;;;;;;;31.15;13.98;;;3.80;99.90;;;;;;5090860;28;20051;-71
2021/03/11 00:47:14;;;;;;;29.05;14.68;;;3.80;99.90;;;;;;5091683;28;20056;-71
2021/03/11 00:49:40;;;;;;;28.60;13.93;;;4.00;99.90;;;;;;5073516;28;20035;-71
2021/03/11 00:52:06;;;;;;;27.10;14.70;;;4.20;99.90;;;;;;5073495;28;20024;-71
2021/03/11 00:54:31;;;;;;;27.15;13.40;;;4.30;99.90;;;;;;5092674;28;20478;-71
2021/03/11 00:56:57;;;;;;;25.50;12.35;;;4.50;99.90;;;;;;5091512;28;20486;-71
2021/03/11 00:59:22;;;;;;;26.17;12.10;;;4.60;99.20;;;;;;5091415;28;20028;-71
2021/03/11 01:01:48;;;;;;;24.52;12.98;;;4.80;98.40;;;;;;5091428;28;20028;-72
2021/03/11 01:04:14;;;;;;;27.38;13.20;;;5.00;98.90;;;;;;5073291;28;20028;-71
2021/03/11 01:06:39;;;;;;;26.55;12.70;;;5.00;99.00;;;;;;5091551;28;20024;-71
2021/03/11 01:09:05;;;;;;;28.00;12.35;;;5.00;98.80;;;;;;5073357;28;20028;-71
2021/03/11 01:11:31;;;;;;;25.48;12.57;;;5.10;98.50;;;;;;5091401;28;20039;-71
2021/03/11 01:13:57;;;;;;;25.65;12.25;;;5.10;98.50;;;;;;5090809;28;20024;-72
2021/03/11 01:16:23;;;;;;;21.23;11.55;;;5.30;97.00;;;;;;5073433;28;20070;-71
2021/03/11 01:18:49;;;;;;;21.02;11.23;;;5.40;96.50;;;;;;5073267;28;20446;-70
2021/03/11 01:21:14;;;;;;;22.42;12.43;;;5.40;97.20;;;;;;5091109;28;20061;-70
2021/03/11 01:23:40;;;;;;;26.30;11.60;;;5.50;96.20;;;;;;5090741;28;20462;-70
2021/03/11 01:26:05;;;;;;;23.20;12.05;;;5.60;97.00;;;;;;5072946;28;20032;-71
2021/03/11 01:28:31;;;;;;;22.38;11.32;;;5.60;96.20;;;;;;5072934;28;20024;-71
2021/03/11 01:30:56;;;;;;;27.17;12.35;;;5.70;97.10;;;;;;5090997;28;20024;-70
2021/03/11 01:33:22;;;;;;;22.58;11.80;;;5.70;96.60;;;;;;5090659;28;20420;-70
2021/03/11 01:35:48;;;;;;;23.15;12.32;;;5.70;97.20;;;;;;5090941;28;20426;-71
2021/03/11 01:38:14;;;;;;;22.40;11.70;;;5.60;98.00;;;;;;5090842;28;20153;-70
2021/03/11 01:40:39;;;;;;;23.60;11.73;;;5.70;96.90;;;;;;5072781;28;20107;-71
2021/03/11 01:43:05;;;;;;;20.80;11.25;;;5.70;97.40;;;;;;5090581;28;20103;-70
2021/03/11 01:45:31;;;;;;;21.65;11.68;;;5.70;96.10;;;;;;5090471;28;20508;-70
2021/03/11 01:47:56;;;;;;;25.17;12.25;;;5.90;96.10;;;;;;5090802;28;20024;-71
2021/03/11 01:50:22;;;;;;;22.15;11.45;;;5.80;96.30;;;;;;5090803;28;20042;-70
2021/03/11 01:52:50;;;;;;;21.48;11.35;;;5.90;97.20;;;;;;5090436;28;20161;-71
2021/03/11 01:55:17;;;;;;;24.83;11.90;;;5.80;97.20;;;;;;5073487;28;20119;-71
2021/03/11 01:57:45;;;;;;;21.02;11.38;;;5.70;97.10;;;;;;5076488;28;20035;-70
2021/03/11 02:00:12;;;;;;;22.70;11.95;;;5.80;96.50;;;;;;5094734;28;20031;-70
2021/03/11 02:02:43;;;;;;;23.40;11.27;;;5.80;95.50;;;;;;5076350;28;20024;-71
2021/03/11 02:05:12;;;;;;;20.38;10.73;;;5.80;96.30;;;;;;5094676;28;20021;-70
2021/03/11 02:07:37;;;;;;;23.17;12.35;;;5.90;96.00;;;;;;5094710;28;20020;-70
2021/03/11 02:10:06;;;;;;;21.75;11.68;;;6.00;95.40;;;;;;5094625;28;20020;-71
2021/03/11 02:13:10;;;;;;;21.52;10.80;;;6.00;96.00;;;;;;5094211;28;20380;-70
2021/03/11 02:15:53;;;;;;;22.98;11.43;;;6.10;94.80;;;;;;5094068;28;20524;-71
2021/03/11 02:18:27;;;;;;;20.95;11.35;;;6.10;95.00;;;;;;5094495;28;20026;-71
2021/03/11 02:21:10;;;;;;;22.92;11.55;;;6.00;95.80;;;;;;5094257;28;20016;-71
2021/03/11 02:24:20;;;;;;;22.15;11.57;;;6.00;95.90;;;;;;5094181;28;20026;-71
2021/03/11 02:27:22;;;;;;;21.25;11.13;;;5.90;96.60;;;;;;5094401;28;20435;-71
2021/03/11 02:29:48;;;;;;;23.85;12.02;;;6.00;96.40;;;;;;5076048;28;20158;-71
2021/03/11 02:32:15;;;;;;;21.88;11.88;;;6.00;96.60;;;;;;5093890;28;20032;-71
2021/03/11 02:34:46;;;;;;;22.15;11.77;;;6.00;96.70;;;;;;5093990;28;20028;-70
2021/03/11 02:37:14;;;;;;;;;;;6.00;97.20;;;;;;5076224;28;20028;-70
2021/03/11 02:39:49;;;;;;;25.13;12.02;;;6.00;96.70;;;;;;5075733;28;19994;-70
2021/03/11 02:42:15;;;;;;;25.48;13.02;;;6.10;95.40;;;;;;5093734;28;20020;-70
2021/03/11 02:44:42;;;;;;;24.67;12.38;;;6.20;96.20;;;;;;5093643;28;20031;-71
2021/03/11 02:47:08;;;;;;;25.13;11.68;;;6.20;95.90;;;;;;5093845;28;20024;-71
2021/03/11 02:49:35;;;;;;;23.48;12.63;;;6.10;96.00;;;;;;5075707;28;20202;-71
2021/03/11 02:52:01;;;;;;;23.52;12.05;;;6.20;96.50;;;;;;5075239;28;20020;-70
2021/03/11 02:54:28;;;;;;;23.40;12.50;;;6.20;96.10;;;;;;5093713;28;20024;-71
2021/03/11 02:56:57;;;;;;;22.85;12.82;;;6.20;96.70;;;;;;5093789;28;20081;-71
2021/03/11 02:59:24;;;;;;;25.30;12.38;;;6.20;97.40;;;;;;5075647;28;20024;-71
2021/03/11 03:01:49;;;;;;;24.90;12.38;;;6.20;96.40;;;;;;5075205;28;20435;-71
2021/03/11 03:04:16;;;;;;;23.40;12.52;;;6.30;96.00;;;;;;5093444;28;20028;-71
2021/03/11 03:06:42;;;;;;;23.83;12.52;;;6.30;96.80;;;;;;5092541;28;20028;-71
2021/03/11 03:09:09;;;;;;;21.85;12.05;;;6.30;96.30;;;;;;5075265;28;20090;-71
2021/03/11 03:11:36;;;;;;;22.73;13.15;;;6.30;97.00;;;;;;5092292;28;20523;-71
2021/03/11 03:14:04;;;;;;;21.17;11.25;;;6.30;96.90;;;;;;5075069;28;20119;-71
2021/03/11 03:16:30;;;;;;;25.02;13.15;;;6.30;96.90;;;;;;5075219;28;20024;-71
2021/03/11 03:18:56;;;;;;;21.48;11.70;;;6.40;97.10;;;;;;5075424;28;20021;-71
2021/03/11 03:21:22;;;;;;;23.45;11.95;;;6.30;97.00;;;;;;5075248;28;20028;-71
2021/03/11 03:23:50;;;;;;;25.45;12.65;;;6.40;97.50;;;;;;5093018;28;20119;-71
2021/03/11 03:26:15;;;;;;;24.70;11.80;;;6.40;97.30;;;;;;5075270;28;20024;-72
2021/03/11 03:28:43;;;;;;;23.92;12.30;;;6.40;97.70;;;;;;5093251;28;20103;-72
2021/03/11 03:31:10;;;;;;;23.02;11.55;;;6.50;97.60;;;;;;5093138;28;20024;-71
2021/03/11 03:33:35;;;;;;;21.58;11.23;;;6.50;98.30;;;;;;5092838;28;20067;-71
2021/03/11 03:36:01;;;;;;;22.15;11.80;;;6.60;97.80;;;;;;5092954;28;20078;-71
2021/03/11 03:38:27;;;;;;;25.70;12.27;;;6.50;98.50;;;;;;5093011;28;20580;-70
2021/03/11 03:40:52;;;;;;;26.00;12.70;;;6.50;98.80;;;;;;5092966;28;20525;-71
2021/03/11 03:43:22;;;;;;;24.50;12.68;;;6.40;98.90;;;;;;5074494;28;20085;-71
2021/03/11 03:46:05;;;;;;;23.65;11.38;;;6.50;98.80;;;;;;5074428;28;20390;-71
2021/03/11 03:48:40;;;;;;;21.65;12.27;;;6.50;98.90;;;;;;5074690;28;20028;-70
2021/03/11 03:51:06;;;;;;;21.20;11.60;;;6.50;98.80;;;;;;5092780;28;20458;-71
2021/03/11 03:53:41;;;;;;;24.73;12.93;;;6.40;99.30;;;;;;5092479;28;20027;-71
2021/03/11 03:56:16;;;;;;;24.60;11.23;;;6.50;98.60;;;;;;5074325;28;20081;-71
2021/03/11 03:58:43;;;;;;;22.95;11.32;;;6.50;98.60;;;;;;5074395;28;20027;-71
2021/03/11 04:01:10;;;;;;;22.05;12.20;;;6.50;98.80;;;;;;5092493;28;20701;-71
2021/03/11 04:03:37;;;;;;;23.42;12.18;;;6.40;99.10;;;;;;5073917;28;20478;-70
2021/03/11 04:06:03;;;;;;;20.90;10.85;;;6.50;98.70;;;;;;5074192;28;20027;-71
2021/03/11 04:08:29;;;;;;;25.77;12.00;;;6.50;98.60;;;;;;5092225;28;20016;-71
2021/03/11 04:10:56;;;;;;;21.58;10.73;;;6.50;98.80;;;;;;5092355;28;20020;-71
2021/03/11 04:13:22;;;;;;;23.05;11.48;;;6.60;98.00;;;;;;5091945;28;20571;-71
2021/03/11 04:15:48;;;;;;;21.42;11.75;;;6.60;98.00;;;;;;5092203;28;20032;-71
2021/03/11 04:18:16;;;;;;;23.77;10.75;;;6.70;97.70;;;;;;5092139;28;20046;-71
2021/03/11 04:20:43;;;;;;;22.75;11.63;;;6.70;97.90;;;;;;5092030;28;20027;-71
2021/03/11 04:23:09;;;;;;;20.70;11.40;;;6.70;98.20;;;;;;5091722;28;20024;-71
2021/03/11 04:25:35;;;;;;;20.70;10.23;;;6.80;98.20;;;;;;5073931;28;20020;-71
2021/03/11 04:28:00;;;;;;;20.45;10.30;;;6.80;97.70;;;;;;5092075;28;20016;-70
2021/03/11 04:30:27;;;;;;;20.88;11.95;;;6.70;98.30;;;;;;5091893;28;20039;-70
2021/03/11 04:32:52;;;;;;;20.42;10.90;;;6.80;97.80;;;;;;5091514;28;20036;-71
2021/03/11 04:35:18;;;;;;;20.73;10.75;;;6.90;98.30;;;;;;5091683;28;20043;-70
2021/03/11 04:37:44;;;;;;;18.35;9.35;;;6.80;98.40;;;;;;5091683;28;20430;-71
2021/03/11 04:40:10;;;;;;;17.50;9.50;;;6.90;97.70;;;;;;5073850;28;20392;-70
2021/03/11 04:42:37;;;;;;;17.88;9.27;;;7.10;97.30;;;;;;5086611;28;20024;-71
2021/03/11 04:45:04;;;;;;;18.85;9.68;;;7.20;97.20;;;;;;5080025;28;20478;-70
2021/03/11 04:47:31;;;;;;;20.10;8.57;;;7.40;96.80;;;;;;5053317;28;20043;-70
2021/03/11 04:49:59;;;;;;;20.65;8.90;;;7.60;96.00;;;;;;5071202;28;20024;-70
2021/03/11 04:52:26;;;;;;;17.25;8.35;;;7.80;96.10;;;;;;5070902;28;20038;-70
2021/03/11 04:54:52;;;;;;;16.88;8.70;;;7.80;95.80;;;;;;5071144;28;20546;-70
2021/03/11 04:57:18;;;;;;;18.88;8.75;;;7.90;95.70;;;;;;5071104;28;20557;-70
2021/03/11 04:59:43;;;;;;;16.75;8.50;;;8.00;95.60;;;;;;5071607;28;20020;-70
2021/03/11 05:02:10;;;;;;;16.50;8.40;;;8.00;95.50;;;;;;5052948;28;20387;-70
2021/03/11 05:04:36;;;;;;;17.42;8.98;;;8.00;95.40;;;;;;5052827;28;20406;-70
2021/03/11 05:07:02;;;;;;;15.82;8.02;;;8.10;95.00;;;;;;5091317;28;20028;-70
2021/03/11 05:09:28;;;;;;;16.08;8.32;;;8.10;94.90;;;;;;5091446;28;20136;-70
2021/03/11 05:11:53;;;;;;;16.75;8.57;;;8.10;95.50;;;;;;5091274;28;20069;-70
2021/03/11 05:14:19;;;;;;;17.92;8.75;;;8.10;95.00;;;;;;5091086;28;20062;-70
2021/03/11 05:16:44;;;;;;;16.90;8.15;;;8.10;95.00;;;;;;5091120;28;20486;-70
2021/03/11 05:19:10;;;;;;;15.57;7.22;;;8.20;94.60;;;;;;5073004;28;20028;-70
2021/03/11 05:21:36;;;;;;;14.07;7.38;;;8.20;94.50;;;;;;5072850;28;20390;-70
2021/03/11 05:24:01;;;;;;;14.77;7.70;;;8.20;94.80;;;;;;5072595;28;20375;-70
2021/03/11 05:26:27;;;;;;;15.40;7.78;;;8.10;94.90;;;;;;5091052;28;20027;-70
2021/03/11 05:28:53;;;;;;;17.17;8.63;;;8.20;94.90;;;;;;5091045;28;20026;-70
2021/03/11 05:31:19;;;;;;;20.73;9.18;;;8.10;95.00;;;;;;5072430;28;20020;-70
2021/03/11 05:33:44;;;;;;;17.85;9.02;;;8.10;95.20;;;;;;5090604;28;20407;-71
2021/03/11 05:36:10;;;;;;;13.57;7.75;;;8.10;94.90;;;;;;5072714;28;20081;-71
2021/03/11 05:38:35;;;;;;;15.18;7.82;;;8.20;94.80;;;;;;5072808;28;20437;-71
2021/03/11 05:41:02;;;;;;;15.00;8.05;;;8.10;95.10;;;;;;5072727;28;20020;-71
2021/03/11 05:43:29;;;;;;;14.85;7.88;;;8.10;95.10;;;;;;5090417;28;20497;-71
2021/03/11 05:45:55;;;;;;;17.00;7.45;;;8.20;95.30;;;;;;5091419;28;20522;-71
2021/03/11 05:48:23;;;;;;;14.15;7.38;;;8.10;95.10;;;;;;5090856;28;20027;-71
2021/03/11 05:50:52;;;;;;;14.35;6.93;;;8.20;95.20;;;;;;5081437;28;20021;-71
2021/03/11 05:53:19;;;;;;;15.23;7.32;;;8.10;95.10;;;;;;5084708;28;20085;-70
2021/03/11 05:55:44;;;;;;;15.68;8.00;;;8.10;95.10;;;;;;5091213;28;20016;-71
2021/03/11 05:58:11;;;;;;;16.38;7.07;;;8.20;95.30;;;;;;5073065;28;20039;-70
2021/03/11 06:00:37;;;;;;;14.90;7.30;;;8.20;95.40;;;;;;5090795;28;20046;-70
2021/03/11 06:03:04;;;;;;;14.10;7.45;;;8.10;95.40;;;;;;5090427;28;20475;-70
2021/03/11 06:05:31;;;;;;;16.33;7.90;;;8.10;95.50;;;;;;5090813;28;20020;-70
2021/03/11 06:07:58;;;;;;;14.15;7.18;;;8.10;95.50;;;;;;5091275;28;20021;-70
2021/03/11 06:10:24;;;;;;;12.02;6.47;;;8.10;95.60;;;;;;5090927;28;20024;-70
2021/03/11 06:12:51;;;;;;;16.58;7.63;;;8.10;95.60;;;;;;5090347;28;20030;-70
2021/03/11 06:15:35;;;;;;;14.55;7.05;;;8.10;95.90;;;;;;5090406;28;20070;-71
2021/03/11 06:18:05;;;;;;;18.38;8.30;;;8.10;96.00;;;;;;5089277;28;20028;-71
2021/03/11 06:20:31;;;;;;;14.45;7.38;;;8.10;96.10;;;;;;5090625;28;20517;-72
2021/03/11 06:22:56;;;;;;;14.70;6.68;;;8.10;96.10;;;;;;5074409;28;20040;-73
2021/03/11 06:25:22;;;;;;;14.23;7.38;;;8.10;96.10;;;;;;5052301;28;20023;-73
2021/03/11 06:27:48;;;;;;;14.30;7.30;;;8.10;96.30;;;;;;5070161;28;20021;-73
2021/03/11 06:30:32;;;;;;;17.00;8.40;;;8.10;96.50;;;;;;5052114;28;20059;-73
2021/03/11 06:32:58;;;;;;;14.95;7.95;;;8.10;96.40;;;;;;5052075;28;20035;-73
2021/03/11 06:35:25;;;;;;;13.80;6.72;;;8.10;96.70;;;;;;5070095;28;20074;-73
2021/03/11 06:37:51;;;;;;;16.05;7.28;;;8.10;96.70;;;;;;5070158;28;20086;-73
2021/03/11 06:40:22;;;;;;;14.57;7.15;;;8.20;96.60;;;;;;5052168;28;20029;-74
2021/03/11 06:42:50;;;;;;;12.07;6.80;;;8.30;96.70;;;;;;5071932;28;20037;-73
2021/03/11 06:45:24;;;;;;;15.20;7.40;;;8.30;96.70;;;;;;5073586;28;20032;-73
2021/03/11 06:47:52;;;;;;;11.07;6.05;;;8.30;96.40;;;;;;5073720;28;20436;-73
2021/03/11 06:50:17;;;;;;;12.50;6.38;;;8.40;96.40;;;;;;5073586;28;20380;-73
2021/03/11 06:53:03;;;;;;;15.38;6.47;;;8.50;96.40;;;;;;5073333;28;20051;-72
2021/03/11 06:55:29;;;;;;;15.13;7.45;;;8.50;96.60;;;;;;5073465;28;20044;-73
2021/03/11 06:57:54;;;;;;;10.65;6.05;;;8.50;96.30;;;;;;5073555;28;20017;-72
2021/03/11 07:00:22;;;;;;;13.02;7.38;;;8.50;96.50;;;;;;5073450;28;20028;-70
2021/03/11 07:02:56;;;;;;;12.07;6.45;;;8.60;96.50;;;;;;5073043;28;20032;-70
2021/03/11 07:05:27;;;;;;;14.57;6.82;;;8.60;96.20;;;;;;5073286;28;20023;-69
2021/03/11 07:08:03;;;;;;;12.63;7.03;;;8.60;96.30;;;;;;5073399;28;20054;-70
2021/03/11 07:10:29;;;;;;;17.08;8.75;;;8.60;96.40;;;;;;5073287;28;20044;-71
2021/03/11 07:12:57;;;;;;;14.20;7.38;;;8.60;96.40;;;;;;5072918;28;20060;-70
2021/03/11 07:15:24;;;;;;;18.02;7.40;;;8.60;96.40;;;;;;5055096;28;20059;-70
2021/03/11 07:17:50;;;;;;;14.93;7.90;;;8.70;96.50;;;;;;5055082;28;20047;-70
2021/03/11 07:20:17;;;;;;;14.95;7.82;;;8.70;96.60;;;;;;5055159;28;20078;-70
2021/03/11 07:23:03;;;;;;;17.20;8.00;;;8.70;96.70;;;;;;5055250;28;20344;-71
2021/03/11 07:25:32;;;;;;;13.73;7.65;;;8.80;96.50;;;;;;5072976;28;20104;-71
2021/03/11 07:27:59;;;;;;;15.43;7.90;;;8.90;96.40;;;;;;5073034;28;20025;-70
2021/03/11 07:30:26;;;;;;;18.60;8.77;;;9.00;96.60;;;;;;5072840;28;20143;-70
2021/03/11 07:32:57;;;;;;;16.52;8.68;;;9.00;96.30;;;;;;5072416;28;20501;-71
2021/03/11 07:35:27;;;;;;;18.10;8.35;;;9.00;96.20;;;;;;5072843;28;20035;-71
2021/03/11 07:37:56;;;;;;;15.80;8.07;;;9.00;96.40;;;;;;5055106;28;20033;-70
2021/03/11 07:40:23;;;;;;;14.32;7.72;;;8.90;96.30;;;;;;5073054;28;20472;-71
2021/03/11 07:42:49;;;;;;;14.30;8.20;;;8.90;96.40;;;;;;5072736;28;20395;-71
2021/03/11 07:45:15;;;;;;;14.57;7.90;;;9.00;96.70;;;;;;5054424;28;20037;-71
2021/03/11 07:47:41;;;;;;;15.95;7.65;;;9.00;96.80;;;;;;5072596;28;20498;-69
2021/03/11 07:50:09;;;;;;;15.02;7.65;;;9.00;96.30;;;;;;5054522;28;20103;-70
2021/03/11 07:52:35;;;;;;;13.82;8.20;;;9.10;96.20;;;;;;5072026;28;20430;-71
2021/03/11 07:55:04;;;;;;;14.73;8.20;;;9.10;96.20;;;;;;5072190;28;20108;-71
2021/03/11 07:57:32;;;;;;;14.20;7.70;;;9.20;96.20;;;;;;5072258;28;20020;-72
2021/03/11 07:59:58;;;;;;;13.38;7.43;;;9.20;96.30;;;;;;5072256;28;20507;-71
2021/03/11 08:02:25;;;;;;;17.63;7.35;;;9.20;96.20;;;;;;5054239;28;20028;-71
2021/03/11 08:04:51;;;;;;;13.90;7.38;;;9.20;96.60;;;;;;5054493;28;20058;-71
2021/03/11 08:07:24;;;;;;;17.17;7.60;;;9.30;96.30;;;;;;5072496;28;20020;-70
2021/03/11 08:09:55;;;;;;;12.82;6.47;;;9.40;96.00;;;;;;5054533;28;20120;-71
2021/03/11 08:12:34;;;;;;;17.00;7.82;;;9.50;95.90;;;;;;5054541;28;20039;-73
2021/03/11 08:15:18;;;;;;;16.63;8.68;;;9.40;95.90;;;;;;5061776;28;20499;-73
2021/03/11 08:17:48;;;;;;;16.23;7.85;;;9.40;96.10;;;;;;5072422;28;20115;-73
2021/03/11 08:20:20;;;;;;;15.90;9.15;;;9.40;96.10;;;;;;5072054;28;20060;-73
2021/03/11 08:22:52;;;;;;;15.18;7.78;;;9.40;96.20;;;;;;5070176;28;20037;-73
2021/03/11 08:25:32;;;;;;;13.95;7.50;;;9.40;96.20;;;;;;5071796;28;20475;-73
2021/03/11 08:27:59;;;;;;;14.73;8.02;;;9.40;96.30;;;;;;5070361;28;20029;-73
2021/03/11 08:30:37;;;;;;;16.17;9.13;;;9.30;96.30;;;;;;5071647;28;20090;-73
2021/03/11 08:33:03;;;;;;;17.83;9.20;;;9.30;96.30;;;;;;5082382;28;20082;-73
2021/03/11 08:35:28;;;;;;;13.60;6.93;;;9.30;96.50;;;;;;5053780;28;20506;-73
2021/03/11 08:38:00;;;;;;;17.10;7.57;;;9.30;96.50;;;;;;5053712;28;20024;-73
2021/03/11 08:40:41;;;;;;;13.00;7.03;;;9.30;96.50;;;;;;5071422;28;20055;-72
2021/03/11 08:43:07;;;;;;;16.45;7.50;;;9.40;96.40;;;;;;5071185;28;20024;-73
2021/03/11 08:45:36;;;;;;;19.35;7.45;;;9.30;96.60;;;;;;5053151;28;20031;-73
2021/03/11 08:48:16;;;;;;;13.27;7.15;;;9.30;96.70;;;;;;5053543;28;20024;-73
2021/03/11 08:50:43;;;;;;;14.23;7.53;;;9.30;96.90;;;;;;5053455;28;20074;-72
2021/03/11 08:53:09;;;;;;;13.52;7.20;;;9.20;96.80;;;;;;5070999;28;20028;-73
2021/03/11 08:55:39;;;;;;;13.20;7.55;;;9.20;97.20;;;;;;5053279;28;20067;-73
2021/03/11 08:58:24;;;;;;;15.05;7.15;;;9.20;97.30;;;;;;5053133;28;20025;-73
2021/03/11 09:01:00;;;;;;;13.93;6.60;;;9.20;97.50;;;;;;5080238;28;20034;-73
2021/03/11 09:03:36;;;;;;;13.45;7.50;;;9.20;97.20;;;;;;5091063;28;20080;-71
2021/03/11 09:06:01;;;;;;;13.70;7.90;;;9.20;97.40;;;;;;5072386;28;20020;-72
2021/03/11 09:08:27;;;;;;;11.60;6.75;;;9.30;97.60;;;;;;5073124;28;20393;-71
2021/03/11 09:11:09;;;;;;;13.57;7.10;;;9.40;97.00;;;;;;5082208;28;20024;-71
2021/03/11 09:13:35;;;;;;;12.95;6.80;;;9.50;97.20;;;;;;5063015;28;20024;-71
2021/03/11 09:16:00;;;;;;;12.75;5.97;;;9.50;97.20;;;;;;5061527;28;20020;-71
2021/03/11 09:18:28;;;;;;;12.27;6.30;;;9.60;97.20;;;;;;5081336;28;20069;-71
2021/03/11 09:20:54;;;;;;;12.93;6.30;;;9.70;97.30;;;;;;5080881;28;20020;-71
2021/03/11 09:23:19;;;;;;;15.15;6.13;;;9.70;97.10;;;;;;5079094;28;20046;-70
2021/03/11 09:25:45;;;;;;;13.93;6.55;;;9.70;97.40;;;;;;5081406;28;20089;-71
2021/03/11 09:28:14;;;;;;;13.70;5.88;;;9.60;97.40;;;;;;5058171;28;20020;-71
2021/03/11 09:30:41;;;;;;;12.80;6.80;;;9.60;97.60;;;;;;5078761;28;20402;-71
2021/03/11 09:33:17;;;;;;;11.23;6.55;;;9.50;98.00;;;;;;5081202;28;20020;-71
2021/03/11 09:35:44;;;;;;;10.93;5.70;;;9.60;97.80;;;;;;5081304;28;20490;-71
2021/03/11 09:38:11;;;;;;;10.68;5.72;;;9.60;97.80;;;;;;5061450;28;20031;-71
2021/03/11 09:40:42;;;;;;;12.70;5.30;;;9.60;97.70;;;;;;5080155;28;20020;-71
2021/03/11 09:43:21;;;;;;;12.55;5.82;;;9.60;97.70;;;;;;5081011;28;20048;-71
2021/03/11 09:45:52;;;;;;;12.65;5.85;;;9.70;97.70;;;;;;5081140;28;20024;-71
2021/03/11 09:48:37;;;;;;;10.15;5.13;;;9.80;97.80;;;;;;5062633;28;20114;-71
2021/03/11 09:51:18;;;;;;;10.32;4.55;;;9.90;97.30;;;;;;5063177;28;20063;-71
2021/03/11 09:53:46;;;;;;;9.02;4.93;;;10.00;97.80;;;;;;5081444;28;20058;-71
2021/03/11 09:56:42;;;;;;;10.60;4.88;;;10.00;97.80;;;;;;5061688;28;20021;-71
2021/03/11 09:59:10;;;;;;;10.68;5.10;;;10.00;97.60;;;;;;5078666;28;20483;-71
2021/03/11 10:01:36;;;;;;;7.55;4.53;;;10.10;97.90;;;;;;5080187;28;20017;-71
2021/03/11 10:04:24;;;;;;;10.10;4.80;;;10.20;97.20;;;;;;5080702;28;20025;-72
2021/03/11 10:06:58;;;;;;;9.50;4.88;;;10.30;97.10;;;;;;5080989;28;20012;-71
2021/03/11 10:09:25;;;;;;;9.15;4.15;;;10.40;96.80;;;;;;5063175;28;20073;-69
2021/03/11 10:11:53;;;;;;;9.27;4.50;;;10.60;96.60;;;;;;5061016;28;20016;-71
2021/03/11 10:14:24;;;;;;;7.95;4.20;;;10.80;96.60;;;;;;5079719;28;20055;-71
2021/03/11 10:16:55;;;;;;;9.52;3.60;;;10.90;95.90;;;;;;5062986;28;20032;-71
2021/03/11 10:19:41;;;;;;;9.57;3.85;;;11.00;95.70;;;;;;5083216;28;20016;-71
2021/03/11 10:22:19;;;;;;;7.28;3.72;;;11.10;95.80;;;;;;5063991;28;20024;-71
2021/03/11 10:24:45;;;;;;;7.13;3.50;;;11.30;95.20;;;;;;5083389;28;20013;-71
2021/03/11 10:27:28;;;;;;;8.48;4.40;;;11.40;95.60;;;;;;5083050;28;20146;-72
2021/03/11 10:30:29;;;;;;;8.55;3.53;;;11.30;95.20;;;;;;5084770;28;20479;-71
2021/03/11 10:33:00;;;;;;;10.32;4.07;;;11.30;95.50;;;;;;5084613;28;20024;-71
2021/03/11 10:35:29;;;;;;;7.50;3.50;;;11.20;95.40;;;;;;5083401;28;20025;-71
2021/03/11 10:38:12;;;;;;;9.73;3.80;;;11.00;95.60;;;;;;5082431;28;20119;-68
2021/03/11 10:40:38;;;;;;;8.32;4.22;;;10.90;96.00;;;;;;5073896;28;20528;-68
2021/03/11 10:43:18;;;;;;;7.78;3.40;;;10.80;96.30;;;;;;5073405;28;20052;-70
2021/03/11 10:45:44;;;;;;;6.65;2.60;;;10.90;96.30;;;;;;5073627;28;20521;-70
2021/03/11 10:48:10;;;;;;;5.43;2.40;;;10.90;96.30;;;;;;5073790;28;20029;-70
2021/03/11 10:50:41;;;;;;;5.20;2.30;;;11.00;96.20;;;;;;5073654;28;20078;-68
2021/03/11 10:53:07;;;;;;;4.75;2.40;;;11.10;96.30;;;;;;5074306;28;20029;-70
2021/03/11 10:55:36;;;;;;;6.53;2.60;;;11.10;96.10;;;;;;5075565;28;20079;-69
2021/03/11 10:58:03;;;;;;;6.60;2.30;;;11.10;96.40;;;;;;5075779;28;20074;-70
2021/03/11 11:00:30;;;;;;;5.28;2.30;;;11.10;96.40;;;;;;5094545;28;20039;-70
2021/03/11 11:02:58;;;;;;;4.45;1.95;;;11.20;96.30;;;;;;5094934;28;20023;-70
2021/03/11 11:05:24;;;;;;;5.22;2.45;;;11.30;96.80;;;;;;5095254;28;20020;-70
2021/03/11 11:07:50;;;;;;;9.13;2.80;;;11.40;96.30;;;;;;5095460;28;20032;-69
2021/03/11 11:10:19;;;;;;;5.47;2.65;;;11.40;96.50;;;;;;5095019;28;20027;-70
2021/03/11 11:12:45;;;;;;;6.10;2.78;;;11.40;96.40;;;;;;5094866;28;20019;-69
2021/03/11 11:15:12;;;;;;;5.40;2.10;;;11.50;96.30;;;;;;5076910;28;20016;-69
2021/03/11 11:17:38;;;;;;;5.53;2.38;;;11.80;96.40;;;;;;5076166;28;20016;-69
2021/03/11 11:20:06;;;;;;;7.03;2.83;;;12.00;95.80;;;;;;5076272;28;20020;-70
2021/03/11 11:22:32;;;;;;;5.35;2.70;;;12.40;96.10;;;;;;5093777;28;20024;-69
2021/03/11 11:24:59;;;;;;;6.95;3.03;;;13.00;94.50;;;;;;5075734;28;20036;-69
2021/03/11 11:27:25;;;;;;;5.53;2.50;;;13.40;94.70;;;;;;5093686;28;20075;-70
2021/03/11 11:29:51;;;;;;;5.50;2.67;;;13.60;93.80;;;;;;5075196;28;20021;-70
2021/03/11 11:32:16;;;;;;;7.07;2.85;;;13.70;92.90;;;;;;5093405;28;20027;-69
2021/03/11 11:34:42;;;;;;;4.63;2.08;;;13.50;93.20;;;;;;5075608;28;20032;-70
2021/03/11 11:37:07;;;;;;;5.63;2.70;;;13.50;94.10;;;;;;5094187;28;20031;-70
2021/03/11 11:39:33;;;;;;;6.25;2.55;;;13.70;93.00;;;;;;5075907;28;20582;-70
2021/03/11 11:41:58;;;;;;;6.00;2.40;;;13.80;93.00;;;;;;5100190;28;20051;-69
2021/03/11 11:44:24;;;;;;;7.15;3.03;;;14.00;93.50;;;;;;5100006;28;20039;-68
2021/03/11 11:46:50;;;;;;;5.65;2.75;;;14.10;92.60;;;;;;5092853;28;20020;-68
2021/03/11 11:49:15;;;;;;;5.05;2.30;;;13.80;92.70;;;;;;5092799;28;20024;-67
2021/03/11 11:51:42;;;;;;;5.00;2.28;;;13.70;93.30;;;;;;5092584;28;20024;-68
2021/03/11 11:54:07;;;;;;;6.35;2.10;;;13.40;93.50;;;;;;5074330;28;20432;-68
2021/03/11 11:56:33;;;;;;;4.03;1.70;;;13.30;93.90;;;;;;5074643;28;20031;-67
2021/03/11 11:58:58;;;;;;;5.88;1.92;;;13.10;94.10;;;;;;5074445;28;20146;-67
2021/03/11 12:01:24;;;;;;;5.13;1.55;;;12.90;94.80;;;;;;5074228;28;20024;-68
2021/03/11 12:03:50;;;;;;;4.05;1.77;;;12.70;95.10;;;;;;5092046;28;20107;-69
2021/03/11 12:06:16;;;;;;;6.35;2.65;;;12.70;95.30;;;;;;5092296;28;20060;-67
2021/03/11 12:08:41;;;;;;;3.55;1.67;;;12.60;95.60;;;;;;5092369;28;20043;-67
2021/03/11 12:11:07;;;;;;;3.35;1.58;;;12.50;95.70;;;;;;5092352;28;20051;-67
2021/03/11 12:13:33;;;;;;;3.78;1.42;;;12.30;96.20;;;;;;5092151;28;20059;-69
2021/03/11 12:15:59;;;;;;;3.58;1.30;;;12.20;96.50;;;;;;5092122;28;20453;-69
2021/03/11 12:18:24;;;;;;;3.65;1.30;;;12.20;96.70;;;;;;5074065;28;20020;-68
2021/03/11 12:20:50;;;;;;;2.78;1.10;;;12.30;96.60;;;;;;5074031;28;20401;-68
2021/03/11 12:23:17;;;;;;;3.63;1.13;;;12.40;96.80;;;;;;5091805;28;20075;-69
2021/03/11 12:25:42;;;;;;;2.60;1.10;;;12.50;96.40;;;;;;5073842;28;20053;-67
2021/03/11 12:28:08;;;;;;;2.22;0.80;;;12.70;96.20;;;;;;5073839;28;20036;-67
2021/03/11 12:30:33;;;;;;;2.53;1.00;;;12.80;96.10;;;;;;5073759;28;20024;-67
2021/03/11 12:32:59;;;;;;;2.88;0.95;;;12.90;96.00;;;;;;5091886;28;20028;-69
2021/03/11 12:35:25;;;;;;;3.60;1.00;;;13.00;95.90;;;;;;5092243;28;20124;-67
2021/03/11 12:37:51;;;;;;;2.63;0.88;;;13.00;95.80;;;;;;5092280;28;20024;-69
2021/03/11 12:40:18;;;;;;;1.83;1.08;;;13.10;95.70;;;;;;5091094;28;20028;-68
2021/03/11 12:42:47;;;;;;;2.38;0.70;;;13.50;95.50;;;;;;5091708;28;20121;-68
2021/03/11 12:45:15;;;;;;;2.92;1.10;;;14.00;94.70;;;;;;5091639;28;20394;-67
2021/03/11 12:47:40;;;;;;;2.25;0.80;;;14.70;93.80;;;;;;5091762;28;20023;-67
2021/03/11 12:50:06;;;;;;;3.30;1.00;;;15.30;92.20;;;;;;5091669;28;20475;-68